createdAt,value
2024-01-07T00:03:17.937Z,101830.75
2024-01-07T00:09:06.631Z,101833.38
2024-01-07T00:14:54.342Z,101832.13
2024-01-07T00:20:43.573Z,101828.09
2024-01-07T00:26:34.661Z,101833.97
2024-01-07T00:32:21.464Z,101833.38
2024-01-07T00:38:08.151Z,101833.38
2024-01-07T00:51:36.425Z,101841.22
2024-01-07T00:57:23.748Z,101851.88
2024-01-07T01:03:10.572Z,101851.03
2024-01-07T01:09:02.845Z,101866.34
2024-01-07T01:14:52.768Z,101871.38
2024-01-07T01:20:46.062Z,101873.38
2024-01-07T01:26:33.000Z,101869.75
2024-01-07T01:32:25.104Z,101867.31
2024-01-07T01:38:12.613Z,101874.09
2024-01-07T01:44:00.589Z,101880.53
2024-01-07T01:49:50.566Z,101872.63
2024-01-07T01:55:37.644Z,101890.69
2024-01-07T02:01:27.830Z,101895.41
2024-01-07T02:07:14.791Z,101902.88
2024-01-07T02:13:06.651Z,101911.97
2024-01-07T02:18:53.555Z,101901.81
2024-01-07T02:24:42.924Z,101911.81
2024-01-07T02:30:29.765Z,101915.53
2024-01-07T02:36:16.936Z,101902.00
2024-01-07T02:42:03.980Z,101915.72
2024-01-07T02:47:51.767Z,101906.06
2024-01-07T02:53:38.578Z,101902.50
2024-01-07T02:59:25.420Z,101905.06
2024-01-07T03:05:12.374Z,101907.28
2024-01-07T03:10:59.219Z,101918.97
2024-01-07T03:16:46.034Z,101905.81
2024-01-07T03:22:33.099Z,101923.19
2024-01-07T03:28:19.930Z,101911.88
2024-01-07T03:34:06.735Z,101913.00
2024-01-07T03:39:53.583Z,101911.13
2024-01-07T03:45:40.348Z,101917.44
2024-01-07T03:51:27.278Z,101921.13
2024-01-07T03:57:14.608Z,101908.84
2024-01-07T04:03:02.563Z,101922.94
2024-01-07T04:08:51.584Z,101927.34
2024-01-07T04:14:38.454Z,101927.13
2024-01-07T04:20:25.284Z,101923.28
2024-01-07T04:26:12.461Z,101934.47
2024-01-07T04:31:59.148Z,101937.22
2024-01-07T04:37:56.502Z,101945.41
2024-01-07T04:43:45.004Z,101951.47
2024-01-07T04:49:37.571Z,101943.81
2024-01-07T04:55:27.501Z,101951.72
2024-01-07T05:01:22.969Z,101960.47
2024-01-07T05:07:10.066Z,101965.69
2024-01-07T05:12:56.952Z,101973.69
2024-01-07T05:18:44.398Z,101978.69
2024-01-07T05:24:33.623Z,101990.94
2024-01-07T05:30:21.722Z,101996.06
2024-01-07T05:36:08.531Z,102002.94
2024-01-07T05:41:55.388Z,102010.81
2024-01-07T05:47:42.382Z,102024.09
2024-01-07T05:53:31.305Z,102027.59
2024-01-07T05:59:19.465Z,102031.44
2024-01-07T06:05:06.863Z,102024.63
2024-01-07T06:10:53.716Z,102033.66
2024-01-07T06:16:40.456Z,102041.56
2024-01-07T06:22:27.389Z,102043.47
2024-01-07T06:28:14.103Z,102052.13
2024-01-07T06:34:01.212Z,102060.16
2024-01-07T06:39:48.610Z,102066.34
2024-01-07T06:45:37.653Z,102076.38
2024-01-07T06:51:24.467Z,102089.81
2024-01-07T06:57:11.359Z,102095.03
2024-01-07T07:02:58.223Z,102100.91
2024-01-07T07:08:45.392Z,102099.34
2024-01-07T07:14:32.240Z,102121.81
2024-01-07T07:20:19.962Z,102122.06
2024-01-07T07:26:09.580Z,102129.91
2024-01-07T07:32:01.232Z,102137.19
2024-01-07T07:37:48.520Z,102143.47
2024-01-07T07:43:35.615Z,102154.69
2024-01-07T07:49:23.710Z,102164.69
2024-01-07T07:55:14.170Z,102162.28
2024-01-07T08:01:01.361Z,102187.19
2024-01-07T08:06:51.069Z,102192.09
2024-01-07T08:12:40.257Z,102192.31
2024-01-07T08:18:28.786Z,102212.91
2024-01-07T08:24:16.019Z,102234.56
2024-01-07T08:30:05.992Z,102229.88
2024-01-07T08:35:54.990Z,102233.97
2024-01-07T08:41:42.019Z,102244.06
2024-01-07T08:47:32.863Z,102237.59
2024-01-07T08:53:23.801Z,102237.47
2024-01-07T08:59:11.222Z,102247.38
2024-01-07T09:05:03.501Z,102251.63
2024-01-07T09:11:01.520Z,102256.03
2024-01-07T09:16:50.041Z,102264.53
2024-01-07T09:22:41.789Z,102268.00
2024-01-07T09:28:28.757Z,102268.25
2024-01-07T09:34:16.188Z,102274.84
2024-01-07T09:45:55.051Z,102262.59
2024-01-07T09:51:45.860Z,102275.31
2024-01-07T09:57:32.831Z,102280.59
2024-01-07T10:03:28.703Z,102286.81
2024-01-07T10:09:17.046Z,102283.59
2024-01-07T10:15:04.445Z,102289.94
2024-01-07T10:20:55.309Z,102292.84
2024-01-07T10:26:45.238Z,102296.50
2024-01-07T10:32:32.430Z,102299.69
2024-01-07T10:38:19.488Z,102295.69
2024-01-07T10:44:06.632Z,102282.25
2024-01-07T10:50:00.639Z,102278.88
2024-01-07T10:56:00.761Z,102280.84
2024-01-07T11:01:50.025Z,102281.84
2024-01-07T11:07:43.017Z,102280.22
2024-01-07T11:13:34.865Z,102281.22
2024-01-07T11:19:22.106Z,102265.03
2024-01-07T11:25:30.899Z,102269.84
2024-01-07T11:31:24.895Z,102272.72
2024-01-07T11:37:15.846Z,102283.28
2024-01-07T11:43:03.721Z,102285.09
2024-01-07T11:49:04.079Z,102285.41
2024-01-07T11:54:51.668Z,102290.97
2024-01-07T12:00:38.875Z,102291.75
2024-01-07T12:06:26.383Z,102291.50
2024-01-07T12:12:14.545Z,102287.13
2024-01-07T12:18:03.548Z,102280.63
2024-01-07T12:23:52.365Z,102278.69
2024-01-07T12:29:39.351Z,102276.84
2024-01-07T12:35:29.605Z,102276.28
2024-01-07T12:41:19.979Z,102286.03
2024-01-07T12:47:06.908Z,102282.28
2024-01-07T12:53:10.545Z,102279.81
2024-01-07T12:58:57.517Z,102281.59
2024-01-07T13:04:46.701Z,102278.16
2024-01-07T13:10:36.363Z,102276.28
2024-01-07T13:16:28.377Z,102288.63
2024-01-07T13:22:16.138Z,102306.44
2024-01-07T13:28:03.390Z,102305.66
2024-01-07T13:33:50.836Z,102300.22
2024-01-07T13:39:45.344Z,102301.28
2024-01-07T13:51:49.576Z,102304.41
2024-01-07T13:57:37.649Z,102300.66
2024-01-07T14:04:06.517Z,102306.94
2024-01-07T14:10:27.607Z,102306.13
2024-01-07T14:16:16.698Z,102305.81
2024-01-07T14:22:03.876Z,102329.47
2024-01-07T14:35:46.507Z,102324.94
2024-01-07T14:42:06.059Z,102330.28
2024-01-07T14:47:53.316Z,102331.44
2024-01-07T14:53:40.151Z,102334.41
2024-01-07T14:59:27.904Z,102333.75
2024-01-07T15:05:15.040Z,102343.84
2024-01-07T15:11:02.402Z,102349.09
2024-01-07T15:16:55.137Z,102349.28
2024-01-07T15:22:42.160Z,102353.72
2024-01-07T15:28:29.210Z,102359.28
2024-01-07T15:34:16.132Z,102375.22
2024-01-07T15:40:04.392Z,102371.44
2024-01-07T15:45:51.549Z,102388.13
2024-01-07T15:51:43.291Z,102398.06
2024-01-07T15:57:30.134Z,102410.00
2024-01-07T16:03:20.240Z,102422.38
2024-01-07T16:09:07.516Z,102411.63
2024-01-07T16:14:59.991Z,102432.78
2024-01-07T16:20:52.666Z,102451.41
2024-01-07T16:26:45.915Z,102444.84
2024-01-07T16:32:32.923Z,102444.44
2024-01-07T16:38:20.731Z,102451.84
2024-01-07T16:44:10.914Z,102439.41
2024-01-07T16:50:20.993Z,102456.81
2024-01-07T16:56:08.899Z,102466.84
2024-01-07T17:01:56.697Z,102474.34
2024-01-07T17:07:49.532Z,102480.94
2024-01-07T17:13:48.674Z,102490.34
2024-01-07T17:19:35.545Z,102501.56
2024-01-07T17:25:22.635Z,102503.09
2024-01-07T17:31:10.134Z,102506.81
2024-01-07T17:36:57.069Z,102515.13
2024-01-07T17:42:47.046Z,102522.53
2024-01-07T17:48:35.743Z,102533.66
2024-01-07T17:54:22.624Z,102552.72
2024-01-07T18:00:15.251Z,102552.25
2024-01-07T18:06:05.360Z,102562.56
2024-01-07T18:11:52.656Z,102583.44
2024-01-07T18:17:44.628Z,102585.41
2024-01-07T18:23:31.513Z,102595.38
2024-01-07T18:29:18.583Z,102593.97
2024-01-07T18:35:06.088Z,102605.03
2024-01-07T18:40:55.916Z,102615.47
2024-01-07T18:46:47.534Z,102626.00
2024-01-07T18:52:39.065Z,102620.13
2024-01-07T18:58:26.210Z,102632.38
2024-01-07T19:04:16.364Z,102644.72
2024-01-07T19:10:04.803Z,102642.88
2024-01-07T19:15:52.365Z,102634.03
2024-01-07T19:21:42.482Z,102627.75
2024-01-07T19:27:33.503Z,102625.34
2024-01-07T19:33:20.834Z,102633.03
2024-01-07T19:39:19.679Z,102638.56
2024-01-07T19:45:10.580Z,102652.94
2024-01-07T19:51:00.165Z,102664.94
2024-01-07T19:56:50.044Z,102664.19
2024-01-07T20:02:38.261Z,102651.59
2024-01-07T20:09:01.744Z,102648.00
2024-01-07T20:14:56.997Z,102631.47
2024-01-07T20:21:24.730Z,102643.69
2024-01-07T20:27:17.977Z,102643.78
2024-01-07T20:33:12.145Z,102655.25
2024-01-07T20:38:59.497Z,102659.47
2024-01-07T20:44:47.929Z,102666.88
2024-01-07T20:50:36.242Z,102671.69
2024-01-07T20:56:23.874Z,102674.34
2024-01-07T21:02:15.373Z,102680.16
2024-01-07T21:08:04.814Z,102690.66
2024-01-07T21:14:03.174Z,102689.75
2024-01-07T21:19:50.738Z,102682.84
2024-01-07T21:25:37.779Z,102689.69
2024-01-07T21:31:25.414Z,102700.38
2024-01-07T21:37:12.282Z,102709.94
2024-01-07T21:42:59.915Z,102708.69
2024-01-07T21:48:47.578Z,102717.72
2024-01-07T21:54:34.753Z,102717.47
2024-01-07T22:00:22.421Z,102703.25
2024-01-07T22:06:23.947Z,102703.41
2024-01-07T22:12:10.985Z,102693.78
2024-01-07T22:18:04.362Z,102704.72
2024-01-07T22:23:52.139Z,102706.31
2024-01-07T22:29:38.995Z,102703.75
2024-01-07T22:35:26.075Z,102690.63
2024-01-07T22:41:16.219Z,102699.81
2024-01-07T22:47:05.368Z,102703.28
2024-01-07T22:52:52.286Z,102715.50
2024-01-07T22:58:39.740Z,102705.06
2024-01-07T23:04:29.010Z,102709.81
2024-01-07T23:10:27.884Z,102719.13
2024-01-07T23:16:15.153Z,102707.66
2024-01-07T23:22:04.681Z,102719.88
2024-01-07T23:28:15.373Z,102719.00
2024-01-07T23:34:07.809Z,102726.53
2024-01-07T23:39:57.528Z,102728.63
2024-01-07T23:46:00.850Z,102721.34
2024-01-07T23:51:53.861Z,102725.19
2024-01-07T23:58:06.987Z,102714.41
